Time;durP1;ratioP1;P1;durP2;ratioP2;P2;SDS_P1;SDS_P2;PMS_P1;PMS_P2;Temp;Humidity;BMP_temperature;BMP_pressure;BME280_temperature;BME280_humidity;BME280_pressure;Samples;Min_cycle;Max_cycle;Signal;HPM_P1;HPM_P2
2022/10/31 00:00:53;;;;;;;41.47;30.80;;;13.80;99.90;;;;;;5073539;28;20457;-44
2022/10/31 00:03:20;;;;;;;40.60;30.07;;;13.60;99.90;;;;;;5073494;28;20444;-45
2022/10/31 00:05:48;;;;;;;40.17;32.90;;;13.70;99.90;;;;;;5073478;28;20438;-45
2022/10/31 00:08:15;;;;;;;36.90;29.63;;;13.70;99.90;;;;;;5073064;28;20444;-44
2022/10/31 00:10:42;;;;;;;39.90;30.00;;;13.70;99.90;;;;;;5072768;28;20439;-44
2022/10/31 00:13:11;;;;;;;35.00;30.57;;;13.80;99.90;;;;;;5073767;28;20480;-45
2022/10/31 00:15:39;;;;;;;41.33;30.67;;;13.70;99.90;;;;;;5072923;28;20405;-44
2022/10/31 00:18:07;;;;;;;34.97;28.90;;;13.40;99.90;;;;;;5073142;28;20438;-44
2022/10/31 00:25:02;;;;;;;40.27;31.37;;;13.80;99.90;;;;;;5073333;28;20423;-45
2022/10/31 00:27:28;;;;;;;43.13;32.10;;;13.70;99.90;;;;;;5072966;28;20447;-45
2022/10/31 00:29:56;;;;;;;38.77;32.10;;;13.50;99.90;;;;;;5072395;28;20476;-46
2022/10/31 00:32:23;;;;;;;40.40;32.70;;;13.60;99.90;;;;;;5071279;28;20473;-44
2022/10/31 00:34:49;;;;;;;39.93;32.50;;;13.70;99.90;;;;;;5072822;28;20437;-45
2022/10/31 00:37:16;;;;;;;36.53;31.23;;;14.10;99.90;;;;;;5073094;28;20874;-44
2022/10/31 00:39:45;;;;;;;35.63;31.20;;;13.40;99.90;;;;;;5071292;28;20465;-46
2022/10/31 00:42:11;;;;;;;35.13;29.40;;;13.80;99.90;;;;;;5073257;28;20472;-43
2022/10/31 00:44:38;;;;;;;36.20;30.03;;;13.60;99.90;;;;;;5071534;28;20428;-45
2022/10/31 00:47:06;;;;;;;36.63;30.40;;;13.90;99.90;;;;;;5071215;28;20455;-44
2022/10/31 00:49:32;;;;;;;39.30;32.43;;;13.60;99.90;;;;;;5072055;28;20449;-45
2022/10/31 00:51:59;;;;;;;41.13;31.37;;;13.20;99.90;;;;;;5071492;28;20431;-45
2022/10/31 00:54:26;;;;;;;35.57;31.70;;;13.60;99.90;;;;;;5071354;28;20460;-45
2022/10/31 00:56:52;;;;;;;36.43;30.70;;;13.80;99.90;;;;;;5071156;28;20424;-45
2022/10/31 00:59:19;;;;;;;39.73;31.57;;;13.70;99.90;;;;;;5071979;28;20820;-45
2022/10/31 01:01:45;;;;;;;35.43;30.43;;;13.40;99.90;;;;;;5071178;28;20452;-47
2022/10/31 01:04:13;;;;;;;42.60;33.00;;;13.60;99.90;;;;;;5071570;28;20477;-45
2022/10/31 01:06:40;;;;;;;40.00;32.93;;;13.50;99.90;;;;;;5072613;28;20427;-45
2022/10/31 01:09:06;;;;;;;39.20;31.13;;;13.80;99.90;;;;;;5071744;28;20463;-45
2022/10/31 01:11:33;;;;;;;48.27;32.80;;;13.70;99.90;;;;;;5070953;28;20451;-44
2022/10/31 01:14:00;;;;;;;38.67;31.50;;;13.70;99.90;;;;;;5070681;28;20447;-45
2022/10/31 01:16:29;;;;;;;51.00;33.50;;;13.40;99.90;;;;;;5070923;28;20438;-46
2022/10/31 01:18:56;;;;;;;35.73;31.53;;;13.70;99.90;;;;;;5071349;28;20401;-45
2022/10/31 01:21:26;;;;;;;45.07;32.77;;;13.50;99.90;;;;;;5072280;28;20450;-45
2022/10/31 01:23:55;;;;;;;44.13;31.60;;;13.30;99.90;;;;;;5070853;28;20449;-45
2022/10/31 01:26:23;;;;;;;38.50;32.47;;;14.00;99.90;;;;;;5070660;28;20448;-45
2022/10/31 01:28:51;;;;;;;39.50;33.77;;;13.50;99.90;;;;;;5071802;28;20433;-44
2022/10/31 01:31:19;;;;;;;42.50;33.20;;;13.50;99.90;;;;;;5071873;28;20477;-45
2022/10/31 01:33:46;;;;;;;35.13;31.30;;;12.80;99.90;;;;;;5071964;28;20448;-44
2022/10/31 01:36:16;;;;;;;34.60;28.93;;;13.70;99.90;;;;;;5070598;28;20449;-45
2022/10/31 01:38:44;;;;;;;36.00;30.80;;;13.70;99.90;;;;;;5071542;28;20438;-44
2022/10/31 01:41:13;;;;;;;37.50;28.70;;;13.40;99.90;;;;;;5071851;28;20460;-46
2022/10/31 01:43:44;;;;;;;39.30;30.90;;;13.80;99.90;;;;;;5070582;28;20437;-45
2022/10/31 01:46:12;;;;;;;31.73;27.50;;;13.50;99.90;;;;;;5071954;28;20451;-45
2022/10/31 01:48:40;;;;;;;36.73;31.23;;;13.50;99.90;;;;;;5071423;28;20441;-45
2022/10/31 01:51:08;;;;;;;40.50;29.10;;;13.30;99.90;;;;;;5070375;28;20472;-45
2022/10/31 01:53:36;;;;;;;33.90;28.87;;;13.60;99.90;;;;;;5071666;28;20465;-44
2022/10/31 01:56:05;;;;;;;35.67;30.30;;;13.40;99.90;;;;;;5071339;28;20426;-45
2022/10/31 01:58:32;;;;;;;31.13;24.70;;;13.50;99.90;;;;;;5071237;28;20446;-45
2022/10/31 02:01:00;;;;;;;36.77;27.40;;;13.40;99.90;;;;;;5072872;28;20445;-47
2022/10/31 02:03:28;;;;;;;31.70;28.27;;;13.20;99.90;;;;;;5072420;28;20540;-47
2022/10/31 02:05:58;;;;;;;32.20;28.70;;;13.20;99.90;;;;;;5072176;28;20475;-44
2022/10/31 02:08:28;;;;;;;33.87;30.30;;;13.10;99.90;;;;;;5072584;28;20433;-45
2022/10/31 02:10:57;;;;;;;33.60;28.37;;;13.30;99.90;;;;;;5072545;28;20439;-44
2022/10/31 02:13:26;;;;;;;45.93;30.17;;;12.80;99.90;;;;;;5071176;28;20482;-45
2022/10/31 02:15:55;;;;;;;31.20;27.17;;;13.10;99.90;;;;;;5071504;28;20416;-44
2022/10/31 02:18:23;;;;;;;36.90;28.73;;;12.90;99.90;;;;;;5072242;28;20433;-50
2022/10/31 02:21:02;;;;;;;31.37;27.13;;;13.40;99.90;;;;;;5070912;28;20461;-44
2022/10/31 02:24:03;;;;;;;36.50;29.90;;;13.30;99.90;;;;;;5071310;28;20512;-45
2022/10/31 02:27:03;;;;;;;32.40;27.83;;;13.50;99.90;;;;;;5071509;28;20477;-45
2022/10/31 02:30:00;;;;;;;33.33;26.83;;;13.50;99.90;;;;;;5070617;28;20484;-45
2022/10/31 02:32:34;;;;;;;35.00;26.13;;;13.30;99.90;;;;;;5073338;28;20841;-45
2022/10/31 02:35:11;;;;;;;36.63;28.37;;;13.00;99.90;;;;;;5074947;28;20544;-45
2022/10/31 02:37:43;;;;;;;37.63;27.60;;;13.20;99.90;;;;;;5076041;28;20444;-45
2022/10/31 02:40:18;;;;;;;34.90;28.43;;;13.00;99.90;;;;;;5074144;28;20999;-45
2022/10/31 02:43:13;;;;;;;34.47;26.80;;;13.20;99.90;;;;;;5074578;28;20887;-45
2022/10/31 02:45:46;;;;;;;36.33;25.77;;;13.40;99.90;;;;;;5074359;28;20974;-45
2022/10/31 02:48:21;;;;;;;36.03;25.90;;;13.60;99.90;;;;;;5074437;28;20441;-45
2022/10/31 02:50:53;;;;;;;35.67;27.03;;;12.80;99.90;;;;;;5074378;28;20466;-44
2022/10/31 02:53:19;;;;;;;35.03;26.93;;;13.10;99.90;;;;;;5075760;28;20473;-45
2022/10/31 02:55:59;;;;;;;32.57;27.80;;;13.20;99.90;;;;;;5075286;28;20551;-45
2022/10/31 02:58:31;;;;;;;31.30;26.80;;;13.20;99.90;;;;;;5075651;28;20441;-45
2022/10/31 03:01:19;;;;;;;39.13;28.13;;;12.70;99.90;;;;;;5074958;28;20461;-44
2022/10/31 03:04:00;;;;;;;31.97;27.13;;;13.00;99.90;;;;;;5076965;28;20392;-44
2022/10/31 03:06:33;;;;;;;28.63;24.90;;;12.50;99.90;;;;;;5074917;28;20819;-44
2022/10/31 03:09:10;;;;;;;33.50;27.03;;;12.70;99.90;;;;;;5075693;28;20436;-44
2022/10/31 03:11:47;;;;;;;30.63;25.17;;;12.90;99.90;;;;;;5074526;28;20508;-44
2022/10/31 03:14:21;;;;;;;31.90;28.20;;;12.90;99.90;;;;;;5074254;28;20456;-44
2022/10/31 03:16:57;;;;;;;33.83;27.50;;;12.80;99.90;;;;;;5075162;28;20792;-45
2022/10/31 03:19:30;;;;;;;32.93;25.07;;;12.80;99.90;;;;;;5074208;28;20455;-46
2022/10/31 03:22:00;;;;;;;31.00;26.07;;;12.70;99.90;;;;;;5074834;28;20421;-44
2022/10/31 03:24:31;;;;;;;30.83;24.50;;;13.20;99.90;;;;;;5075938;28;20433;-47
2022/10/31 03:27:00;;;;;;;28.03;23.97;;;13.40;99.90;;;;;;5074943;28;20539;-44
2022/10/31 03:29:34;;;;;;;28.37;23.20;;;13.60;99.90;;;;;;5073200;28;20529;-44
2022/10/31 03:32:06;;;;;;;31.60;21.97;;;13.20;99.90;;;;;;5074006;28;20423;-44
2022/10/31 03:34:37;;;;;;;25.73;22.60;;;12.50;99.90;;;;;;5074199;28;20460;-43
2022/10/31 03:37:07;;;;;;;26.23;22.50;;;12.90;99.90;;;;;;5074968;28;20436;-45
2022/10/31 03:39:35;;;;;;;24.10;19.07;;;12.90;99.90;;;;;;5072508;28;20992;-45
2022/10/31 03:42:06;;;;;;;21.90;17.57;;;13.50;99.90;;;;;;5072257;28;20537;-45
2022/10/31 03:44:35;;;;;;;22.20;18.30;;;13.30;99.90;;;;;;5072877;28;20811;-45
2022/10/31 03:47:04;;;;;;;24.53;20.80;;;13.10;99.90;;;;;;5072415;28;20507;-44
2022/10/31 03:49:32;;;;;;;26.13;16.80;;;13.00;99.90;;;;;;5071960;28;20831;-44
2022/10/31 03:52:07;;;;;;;26.13;20.97;;;13.10;99.90;;;;;;5073795;28;20426;-44
2022/10/31 03:54:39;;;;;;;35.70;21.30;;;13.10;99.90;;;;;;5072274;28;20473;-45
2022/10/31 03:57:11;;;;;;;23.53;20.13;;;13.40;99.90;;;;;;5072265;28;20456;-46
2022/10/31 03:59:41;;;;;;;25.43;19.90;;;13.30;99.90;;;;;;5072280;28;20905;-45
2022/10/31 04:02:16;;;;;;;20.77;18.40;;;12.70;99.90;;;;;;5072555;28;20503;-43
2022/10/31 04:04:46;;;;;;;24.60;19.57;;;13.10;99.90;;;;;;5072585;28;20819;-46
2022/10/31 04:07:15;;;;;;;25.33;19.30;;;13.20;99.90;;;;;;5072218;28;20489;-44
2022/10/31 04:09:45;;;;;;;19.30;16.53;;;13.30;99.90;;;;;;5071722;28;20500;-47
2022/10/31 04:12:16;;;;;;;29.60;19.47;;;13.40;99.90;;;;;;5072210;28;20449;-46
2022/10/31 04:15:03;;;;;;;26.80;19.80;;;13.30;99.90;;;;;;5073783;28;20454;-44
2022/10/31 04:17:33;;;;;;;24.00;19.30;;;12.70;99.90;;;;;;5072069;28;20487;-43
2022/10/31 04:20:00;;;;;;;22.00;18.00;;;13.10;99.90;;;;;;5071666;28;20476;-47
2022/10/31 04:22:30;;;;;;;25.67;20.10;;;13.00;99.90;;;;;;5071908;28;20442;-44
2022/10/31 04:24:56;;;;;;;28.90;19.47;;;13.30;99.90;;;;;;5072452;28;20912;-44
2022/10/31 04:27:23;;;;;;;25.23;19.80;;;13.30;99.90;;;;;;5072709;28;20514;-44
2022/10/31 04:29:49;;;;;;;25.60;18.40;;;13.10;99.90;;;;;;5097194;22;20476;-49
2022/10/31 04:32:16;;;;;;;28.97;18.83;;;13.10;99.90;;;;;;5075509;28;20475;-49
2022/10/31 04:34:43;;;;;;;22.90;18.57;;;13.30;99.90;;;;;;5093465;28;20480;-49
2022/10/31 04:37:11;;;;;;;23.83;19.40;;;12.80;99.90;;;;;;5075469;28;20471;-50
2022/10/31 04:39:39;;;;;;;28.07;18.40;;;13.60;99.90;;;;;;5074902;28;20453;-50
2022/10/31 04:42:23;;;;;;;19.03;16.40;;;13.20;99.90;;;;;;5093678;28;20431;-50
2022/10/31 04:44:50;;;;;;;20.93;18.80;;;13.40;99.90;;;;;;5075186;28;21044;-50
2022/10/31 04:47:17;;;;;;;30.00;18.10;;;13.10;99.90;;;;;;5075180;28;20547;-50
2022/10/31 04:49:44;;;;;;;28.57;17.30;;;13.40;99.90;;;;;;5074784;28;21004;-50
2022/10/31 04:52:12;;;;;;;24.80;18.80;;;13.10;99.90;;;;;;5075189;28;20484;-49
2022/10/31 04:54:40;;;;;;;25.53;17.50;;;13.30;99.90;;;;;;5092230;28;20847;-50
2022/10/31 04:57:33;;;;;;;23.03;17.43;;;13.00;99.90;;;;;;5047483;28;20455;-50
2022/10/31 05:00:02;;;;;;;23.77;16.80;;;13.70;99.90;;;;;;5074787;28;20479;-49
2022/10/31 05:02:29;;;;;;;24.23;17.63;;;13.40;99.90;;;;;;5074836;28;20475;-50
2022/10/31 05:04:57;;;;;;;24.63;17.30;;;13.10;99.90;;;;;;5074915;28;20808;-50
2022/10/31 05:07:24;;;;;;;22.10;16.20;;;13.50;99.90;;;;;;5074836;28;20438;-50
2022/10/31 05:09:52;;;;;;;21.03;14.67;;;13.30;99.90;;;;;;5074458;28;20563;-49
2022/10/31 05:12:19;;;;;;;21.53;14.80;;;12.60;99.90;;;;;;5074689;28;20479;-49
2022/10/31 05:15:06;;;;;;;21.53;16.00;;;13.30;99.90;;;;;;5092974;28;20900;-49
2022/10/31 05:17:53;;;;;;;30.17;16.00;;;13.20;99.90;;;;;;5093173;28;20447;-48
2022/10/31 05:20:38;;;;;;;22.40;16.63;;;13.10;99.90;;;;;;5092842;28;21089;-49
2022/10/31 05:23:12;;;;;;;21.80;17.20;;;13.70;99.90;;;;;;5074660;28;20424;-48
2022/10/31 05:25:42;;;;;;;23.47;16.27;;;13.20;99.90;;;;;;5074348;28;20445;-50
2022/10/31 05:28:09;;;;;;;19.80;17.67;;;13.20;99.90;;;;;;5074074;28;20856;-49
2022/10/31 05:30:35;;;;;;;27.90;18.00;;;13.40;99.90;;;;;;5073765;28;20457;-49
2022/10/31 05:33:04;;;;;;;23.67;17.00;;;13.50;99.90;;;;;;5074240;28;20532;-49
2022/10/31 05:35:49;;;;;;;36.57;19.30;;;12.80;99.90;;;;;;5092805;28;20426;-49
2022/10/31 05:38:31;;;;;;;23.77;16.63;;;13.20;99.90;;;;;;5073936;28;20432;-50
2022/10/31 05:41:06;;;;;;;23.70;18.30;;;13.30;99.90;;;;;;5074242;28;20490;-50
2022/10/31 05:43:34;;;;;;;21.13;14.83;;;12.90;99.90;;;;;;5074210;28;20556;-49
2022/10/31 05:46:03;;;;;;;19.57;16.70;;;13.40;99.90;;;;;;5074004;28;20461;-50
2022/10/31 05:48:52;;;;;;;24.93;17.90;;;13.20;99.90;;;;;;5091537;28;20488;-50
2022/10/31 05:51:58;;;;;;;24.97;16.40;;;13.50;99.90;;;;;;5092025;28;20444;-49
2022/10/31 05:54:33;;;;;;;26.03;17.53;;;13.40;99.90;;;;;;5074061;28;20556;-50
2022/10/31 05:57:01;;;;;;;23.80;16.43;;;13.20;99.90;;;;;;5092122;28;20463;-50
2022/10/31 05:59:28;;;;;;;29.63;17.20;;;13.40;99.90;;;;;;5091698;28;20407;-50
2022/10/31 06:01:55;;;;;;;27.57;19.37;;;13.10;99.90;;;;;;5074189;28;20454;-50
2022/10/31 06:04:44;;;;;;;24.00;16.87;;;13.50;99.90;;;;;;5091718;28;20872;-50
2022/10/31 06:07:11;;;;;;;24.17;18.53;;;13.40;99.90;;;;;;5073682;28;20796;-49
2022/10/31 06:09:38;;;;;;;23.93;16.20;;;13.50;99.90;;;;;;5073367;28;20422;-49
2022/10/31 06:12:08;;;;;;;26.30;17.10;;;13.30;99.90;;;;;;5073738;28;20487;-49
2022/10/31 06:14:54;;;;;;;38.03;21.77;;;13.30;99.90;;;;;;5091523;28;20480;-49
2022/10/31 06:17:21;;;;;;;31.37;20.90;;;13.50;99.90;;;;;;5073803;28;20458;-49
2022/10/31 06:19:47;;;;;;;28.30;19.17;;;13.50;99.90;;;;;;5091535;28;20432;-50
2022/10/31 06:22:20;;;;;;;28.13;18.83;;;13.30;99.90;;;;;;5073415;28;20548;-49
2022/10/31 06:24:47;;;;;;;22.90;17.67;;;13.70;99.90;;;;;;5073689;28;20451;-49
2022/10/31 06:27:29;;;;;;;30.17;18.43;;;13.40;99.90;;;;;;5073636;28;20967;-50
2022/10/31 06:29:58;;;;;;;23.67;18.37;;;13.50;99.90;;;;;;5072881;28;20482;-50
2022/10/31 06:32:30;;;;;;;26.57;18.40;;;13.40;99.90;;;;;;5073541;28;20440;-50
2022/10/31 06:34:58;;;;;;;26.13;18.57;;;13.10;99.90;;;;;;5091708;28;20882;-49
2022/10/31 06:37:25;;;;;;;29.07;18.33;;;13.00;99.90;;;;;;5073449;28;21023;-49
2022/10/31 06:39:54;;;;;;;26.70;17.93;;;13.40;99.90;;;;;;5073187;28;20447;-49
2022/10/31 06:42:20;;;;;;;21.80;16.90;;;13.60;99.90;;;;;;5073533;28;20422;-49
2022/10/31 06:44:49;;;;;;;26.67;18.10;;;13.80;99.90;;;;;;5073322;28;20795;-50
2022/10/31 06:47:42;;;;;;;26.27;20.43;;;13.50;99.90;;;;;;5091567;28;20422;-50
2022/10/31 06:50:12;;;;;;;24.87;19.00;;;13.10;99.90;;;;;;5091373;28;20461;-50
2022/10/31 06:52:39;;;;;;;34.70;20.37;;;13.90;99.90;;;;;;5073109;28;20448;-50
2022/10/31 06:55:06;;;;;;;25.77;18.93;;;14.10;99.90;;;;;;5073163;28;20469;-49
2022/10/31 06:57:34;;;;;;;27.10;19.13;;;13.60;99.90;;;;;;5072900;28;20484;-49
2022/10/31 07:00:02;;;;;;;26.07;17.77;;;13.50;99.90;;;;;;5072424;28;20560;-49
2022/10/31 07:02:39;;;;;;;18.93;16.23;;;13.90;99.90;;;;;;5073058;28;20461;-49
2022/10/31 07:05:06;;;;;;;22.50;18.27;;;13.70;99.90;;;;;;5091187;28;20789;-50
2022/10/31 07:07:33;;;;;;;26.13;19.23;;;14.00;99.90;;;;;;5091167;28;21078;-50
2022/10/31 07:10:00;;;;;;;38.67;20.87;;;13.50;99.90;;;;;;5072533;28;20529;-49
2022/10/31 07:12:42;;;;;;;32.07;18.00;;;13.90;99.90;;;;;;5072747;28;20453;-50
2022/10/31 07:15:11;;;;;;;29.13;18.10;;;13.90;99.90;;;;;;5072741;28;20493;-50
2022/10/31 07:17:38;;;;;;;27.27;18.50;;;14.40;99.90;;;;;;5074200;28;20445;-50
2022/10/31 07:20:05;;;;;;;26.80;17.40;;;14.20;99.90;;;;;;5075948;28;20814;-50
2022/10/31 07:22:36;;;;;;;23.53;17.83;;;14.40;99.90;;;;;;5076447;28;20451;-50
2022/10/31 07:25:05;;;;;;;29.53;19.57;;;14.30;99.90;;;;;;5076241;28;20510;-50
2022/10/31 07:27:50;;;;;;;21.10;15.53;;;14.40;99.90;;;;;;5094515;28;20440;-50
2022/10/31 07:30:19;;;;;;;28.73;18.40;;;14.50;99.90;;;;;;5075758;28;20476;-50
2022/10/31 07:32:49;;;;;;;27.40;17.43;;;14.60;99.90;;;;;;5076023;28;20514;-49
2022/10/31 07:35:20;;;;;;;30.73;19.03;;;14.80;99.90;;;;;;5094147;28;21034;-50
2022/10/31 07:37:49;;;;;;;25.03;16.63;;;14.70;99.90;;;;;;5076060;28;20504;-49
2022/10/31 07:40:18;;;;;;;24.90;18.33;;;15.20;99.90;;;;;;5075547;28;20904;-50
2022/10/31 07:42:45;;;;;;;29.50;19.03;;;14.90;99.90;;;;;;5075878;28;20506;-50
2022/10/31 07:45:33;;;;;;;29.87;19.50;;;15.10;99.90;;;;;;5093825;28;20441;-50
2022/10/31 07:48:19;;;;;;;23.90;18.67;;;15.00;99.90;;;;;;5094408;28;20828;-50
2022/10/31 07:51:06;;;;;;;36.90;20.53;;;15.20;99.90;;;;;;5094116;28;20443;-50
2022/10/31 07:53:51;;;;;;;27.50;19.23;;;15.10;99.90;;;;;;5094038;28;20399;-49
2022/10/31 07:56:24;;;;;;;27.93;20.30;;;15.00;99.90;;;;;;5075684;28;20448;-50
2022/10/31 07:58:51;;;;;;;25.07;19.00;;;14.90;99.90;;;;;;5075127;28;20477;-50
2022/10/31 08:01:20;;;;;;;25.33;18.77;;;15.10;99.90;;;;;;5075641;28;20880;-50
2022/10/31 08:04:01;;;;;;;30.33;19.67;;;15.10;99.90;;;;;;5075688;28;20548;-50
2022/10/31 08:06:48;;;;;;;26.83;20.03;;;14.90;99.90;;;;;;5094054;28;20441;-49
2022/10/31 08:09:27;;;;;;;30.03;20.43;;;14.90;99.90;;;;;;5075528;28;20872;-50
2022/10/31 08:11:57;;;;;;;23.00;19.50;;;15.00;99.90;;;;;;5075316;28;20541;-50
2022/10/31 08:14:24;;;;;;;27.47;18.80;;;15.00;99.90;;;;;;5093168;28;20477;-50
2022/10/31 08:16:54;;;;;;;28.43;20.80;;;14.80;99.90;;;;;;5075365;28;20416;-50
2022/10/31 08:19:21;;;;;;;27.17;21.50;;;14.40;99.90;;;;;;5074914;28;20476;-51
2022/10/31 08:21:51;;;;;;;24.13;20.00;;;15.10;99.90;;;;;;5075122;28;20499;-50
2022/10/31 08:24:18;;;;;;;28.87;19.47;;;14.90;99.90;;;;;;5074792;28;21030;-50
2022/10/31 08:26:45;;;;;;;30.53;20.97;;;14.40;99.90;;;;;;5075099;28;20432;-49
2022/10/31 08:29:12;;;;;;;27.70;19.30;;;14.30;99.90;;;;;;5074624;28;20449;-51
2022/10/31 08:31:40;;;;;;;27.60;20.47;;;15.00;99.90;;;;;;5074695;28;20447;-49
2022/10/31 08:34:27;;;;;;;27.40;19.30;;;14.80;99.90;;;;;;5093289;28;20421;-49
2022/10/31 08:37:12;;;;;;;31.60;21.40;;;15.10;99.90;;;;;;5093103;28;20424;-49
2022/10/31 08:39:43;;;;;;;28.53;21.70;;;14.80;99.90;;;;;;5074097;28;20429;-49
2022/10/31 08:42:10;;;;;;;28.00;21.13;;;14.80;99.90;;;;;;5074851;28;20484;-49
2022/10/31 08:44:38;;;;;;;25.70;20.60;;;14.90;99.90;;;;;;5075223;28;20948;-50
2022/10/31 08:47:05;;;;;;;29.27;21.50;;;14.90;99.90;;;;;;5074358;28;20840;-50
2022/10/31 08:49:35;;;;;;;25.83;20.20;;;14.70;99.90;;;;;;5074239;28;20449;-50
2022/10/31 08:52:03;;;;;;;26.80;20.07;;;15.00;99.90;;;;;;5074739;28;20456;-50
2022/10/31 08:54:34;;;;;;;30.47;22.10;;;14.90;99.90;;;;;;5074685;28;20479;-50
2022/10/31 08:57:27;;;;;;;32.77;21.60;;;14.90;99.90;;;;;;5092648;28;20480;-50
2022/10/31 08:59:54;;;;;;;27.63;22.30;;;14.60;99.90;;;;;;5074113;28;20465;-50
2022/10/31 09:02:26;;;;;;;30.37;21.57;;;14.80;99.90;;;;;;5074163;28;20919;-50
2022/10/31 09:04:59;;;;;;;28.10;22.13;;;15.00;99.90;;;;;;5074416;28;20502;-49
2022/10/31 09:07:25;;;;;;;33.57;24.13;;;15.30;99.90;;;;;;5074402;28;20415;-48
2022/10/31 09:09:55;;;;;;;29.73;22.40;;;15.30;99.90;;;;;;5073936;28;21000;-50
2022/10/31 09:12:23;;;;;;;29.27;21.37;;;15.20;99.90;;;;;;5074206;28;20426;-49
2022/10/31 09:15:25;;;;;;;27.87;23.23;;;15.10;99.90;;;;;;5092257;28;20567;-50
2022/10/31 09:18:15;;;;;;;34.37;24.47;;;15.00;99.90;;;;;;5074088;28;20434;-51
2022/10/31 09:20:51;;;;;;;31.57;22.90;;;14.70;99.90;;;;;;5092589;28;20452;-50
2022/10/31 09:23:20;;;;;;;31.97;21.73;;;14.90;99.90;;;;;;5074169;28;20894;-50
2022/10/31 09:25:47;;;;;;;36.97;23.00;;;15.20;99.90;;;;;;5074444;28;20909;-50
2022/10/31 09:28:35;;;;;;;32.57;24.30;;;15.00;99.90;;;;;;5073797;28;20459;-50
2022/10/31 09:31:07;;;;;;;32.47;23.37;;;15.10;99.90;;;;;;5073913;28;20815;-50
2022/10/31 09:34:09;;;;;;;34.00;25.37;;;14.90;99.90;;;;;;5009905;28;20440;-51
2022/10/31 09:36:37;;;;;;;30.03;23.30;;;15.10;99.90;;;;;;5075143;28;20491;-51
2022/10/31 09:39:07;;;;;;;35.50;25.63;;;15.20;99.90;;;;;;5073527;28;20453;-51
2022/10/31 09:41:49;;;;;;;28.67;21.37;;;15.30;99.90;;;;;;5073209;28;20473;-51
2022/10/31 09:44:24;;;;;;;31.07;24.67;;;14.90;99.90;;;;;;5073471;28;20452;-50
2022/10/31 09:46:58;;;;;;;33.60;25.07;;;15.30;99.90;;;;;;5073589;28;20861;-51
2022/10/31 09:49:51;;;;;;;25.20;22.40;;;15.10;99.90;;;;;;5073311;28;20444;-51
2022/10/31 09:52:23;;;;;;;33.43;25.50;;;15.10;99.90;;;;;;5073851;28;20420;-50
2022/10/31 09:54:55;;;;;;;30.47;25.57;;;14.80;99.90;;;;;;5091738;28;20439;-50
2022/10/31 09:57:28;;;;;;;35.30;27.10;;;15.40;99.90;;;;;;5073567;28;20941;-49
2022/10/31 09:59:55;;;;;;;32.20;23.27;;;15.40;99.90;;;;;;5075871;28;20497;-50
2022/10/31 10:02:30;;;;;;;28.30;24.13;;;15.20;99.90;;;;;;5076388;28;20563;-50
2022/10/31 10:04:59;;;;;;;37.00;27.40;;;15.60;99.90;;;;;;5060366;28;21003;-50
2022/10/31 10:07:45;;;;;;;30.37;25.93;;;15.00;99.90;;;;;;5085126;28;20461;-50
2022/10/31 10:10:41;;;;;;;39.67;27.60;;;15.60;99.90;;;;;;5090948;28;20475;-50
2022/10/31 10:13:38;;;;;;;33.27;24.90;;;15.50;99.90;;;;;;5091230;28;20555;-50
2022/10/31 10:16:33;;;;;;;40.50;25.30;;;15.90;99.90;;;;;;5107027;28;20547;-51
2022/10/31 10:19:11;;;;;;;31.63;25.53;;;15.80;99.90;;;;;;5091017;28;20445;-50
2022/10/31 10:21:47;;;;;;;34.57;26.83;;;15.60;99.90;;;;;;5091021;28;20457;-50
2022/10/31 10:24:28;;;;;;;31.00;23.57;;;15.80;99.90;;;;;;5090950;28;20436;-50
2022/10/31 10:27:03;;;;;;;34.87;26.83;;;15.60;99.90;;;;;;5088302;28;20428;-50
2022/10/31 10:29:35;;;;;;;36.17;26.47;;;15.60;99.90;;;;;;5089584;28;20455;-50
2022/10/31 10:32:10;;;;;;;35.00;27.67;;;16.40;99.90;;;;;;5092088;28;20406;-48
2022/10/31 10:34:44;;;;;;;40.03;28.93;;;16.00;99.90;;;;;;5091141;28;20455;-48
2022/10/31 10:37:23;;;;;;;38.33;25.67;;;15.90;99.90;;;;;;5091024;28;20529;-48
2022/10/31 10:39:56;;;;;;;35.33;26.37;;;16.40;99.90;;;;;;5090848;28;20427;-48
2022/10/31 10:48:09;;;;;;;36.83;28.87;;;16.20;99.90;;;;;;5073026;28;20532;-49
2022/10/31 10:50:46;;;;;;;38.87;29.73;;;16.20;99.90;;;;;;5091045;28;20924;-49
2022/10/31 10:53:31;;;;;;;32.67;27.40;;;16.20;99.90;;;;;;5092683;28;20449;-49
2022/10/31 10:56:09;;;;;;;31.40;26.50;;;16.30;99.90;;;;;;5094588;28;20490;-48
2022/10/31 10:58:37;;;;;;;42.63;28.90;;;16.20;99.90;;;;;;5094628;28;20925;-49
2022/10/31 11:01:11;;;;;;;39.63;29.10;;;16.50;99.90;;;;;;5095120;28;20794;-47
2022/10/31 11:03:38;;;;;;;38.57;30.10;;;16.00;99.90;;;;;;5094973;28;20408;-48
2022/10/31 11:06:06;;;;;;;43.10;30.30;;;16.80;99.90;;;;;;5094276;28;20439;-49
2022/10/31 11:08:35;;;;;;;35.90;29.57;;;16.60;99.90;;;;;;5093546;28;20409;-48
2022/10/31 11:11:07;;;;;;;39.50;29.83;;;16.30;99.90;;;;;;5094483;28;20441;-48
2022/10/31 11:13:35;;;;;;;40.93;31.83;;;16.60;99.90;;;;;;5094637;28;20433;-48
2022/10/31 11:16:05;;;;;;;49.63;32.77;;;16.50;99.90;;;;;;5093961;28;20475;-48
2022/10/31 11:18:34;;;;;;;39.97;30.50;;;16.40;99.90;;;;;;5094200;28;20437;-50
2022/10/31 11:21:04;;;;;;;50.63;32.10;;;16.60;99.90;;;;;;5093966;28;20467;-50
2022/10/31 11:23:32;;;;;;;39.57;31.93;;;16.60;99.90;;;;;;5093677;28;20523;-50
2022/10/31 11:26:00;;;;;;;43.17;33.23;;;17.10;99.90;;;;;;5094105;28;20434;-50
2022/10/31 11:28:30;;;;;;;43.97;32.30;;;16.50;99.90;;;;;;5093679;28;20442;-50
2022/10/31 11:31:00;;;;;;;39.07;28.50;;;16.80;99.90;;;;;;5094220;28;20469;-50
2022/10/31 11:33:32;;;;;;;37.53;29.10;;;16.10;99.90;;;;;;5094129;28;20431;-50
2022/10/31 11:36:00;;;;;;;29.50;24.40;;;16.80;99.90;;;;;;5094437;28;20469;-50
2022/10/31 11:38:35;;;;;;;45.53;31.80;;;17.00;99.90;;;;;;5093735;28;20438;-50
2022/10/31 11:41:10;;;;;;;38.40;30.60;;;16.80;99.90;;;;;;5094352;28;20469;-51
2022/10/31 11:43:41;;;;;;;36.20;29.17;;;16.90;99.90;;;;;;5093938;28;20427;-49
2022/10/31 11:46:12;;;;;;;39.87;28.83;;;16.90;99.90;;;;;;5094269;28;20432;-50
2022/10/31 11:48:39;;;;;;;36.43;29.07;;;16.60;99.90;;;;;;5094147;28;20755;-50
2022/10/31 11:51:05;;;;;;;41.13;30.27;;;17.00;99.90;;;;;;5094038;28;20872;-50
2022/10/31 11:53:34;;;;;;;44.77;29.30;;;16.80;99.90;;;;;;5094149;28;20440;-49
2022/10/31 11:56:11;;;;;;;38.03;29.80;;;17.10;99.90;;;;;;5075912;28;20474;-50
2022/10/31 11:58:39;;;;;;;46.93;29.67;;;17.10;99.90;;;;;;5094335;28;20473;-50
2022/10/31 12:01:05;;;;;;;37.97;30.37;;;17.10;99.90;;;;;;5094297;28;20455;-50
2022/10/31 12:03:49;;;;;;;40.17;28.80;;;17.10;99.90;;;;;;5093659;28;20943;-50
2022/10/31 12:06:21;;;;;;;39.43;30.53;;;17.10;99.90;;;;;;5094246;28;20914;-50
2022/10/31 12:08:48;;;;;;;49.77;31.53;;;17.10;99.90;;;;;;5092536;28;20791;-50
2022/10/31 12:11:33;;;;;;;40.13;28.03;;;17.20;99.90;;;;;;5094095;28;20451;-51
2022/10/31 12:14:13;;;;;;;41.53;29.90;;;17.10;99.90;;;;;;5093561;28;20407;-50
2022/10/31 12:16:47;;;;;;;35.07;29.23;;;17.40;99.90;;;;;;5075600;28;20479;-50
2022/10/31 12:19:21;;;;;;;41.10;30.87;;;17.10;99.90;;;;;;5093634;28;20767;-52
2022/10/31 12:22:00;;;;;;;36.73;28.97;;;17.10;99.90;;;;;;5093221;28;20470;-51
2022/10/31 12:24:51;;;;;;;53.83;35.63;;;17.20;99.90;;;;;;5093964;28;20416;-51
2022/10/31 12:27:28;;;;;;;47.40;31.07;;;17.50;99.90;;;;;;5093063;28;20916;-51
2022/10/31 12:30:10;;;;;;;41.50;30.33;;;17.20;99.90;;;;;;5093117;28;20493;-50
2022/10/31 12:32:50;;;;;;;41.17;30.90;;;16.80;99.90;;;;;;5093781;28;20438;-51
2022/10/31 12:35:28;;;;;;;43.13;28.80;;;17.30;99.90;;;;;;5093228;28;20889;-50
2022/10/31 12:38:06;;;;;;;39.80;30.97;;;17.00;99.90;;;;;;5093297;28;20526;-50
2022/10/31 12:40:48;;;;;;;41.53;29.40;;;17.30;99.90;;;;;;5092564;28;20467;-49
2022/10/31 12:43:27;;;;;;;37.03;30.20;;;17.60;99.90;;;;;;5093011;28;20931;-49
2022/10/31 12:45:57;;;;;;;43.03;30.00;;;17.40;99.90;;;;;;5092797;28;20514;-50
2022/10/31 12:48:57;;;;;;;39.30;29.93;;;17.30;99.90;;;;;;5093202;28;20418;-50
2022/10/31 12:51:33;;;;;;;35.00;26.60;;;17.60;99.90;;;;;;5054451;28;21008;-49
2022/10/31 12:54:29;;;;;;;39.60;29.93;;;17.40;99.90;;;;;;5092139;28;20777;-50
2022/10/31 12:57:04;;;;;;;43.97;32.53;;;17.50;99.90;;;;;;5078681;28;20491;-50
2022/10/31 12:59:36;;;;;;;34.87;28.30;;;17.40;99.90;;;;;;5091162;28;20426;-50
2022/10/31 13:02:13;;;;;;;38.33;27.97;;;17.60;99.90;;;;;;5092409;28;20472;-49
2022/10/31 13:04:45;;;;;;;39.90;27.57;;;17.70;99.90;;;;;;5084532;28;20434;-50
2022/10/31 13:07:15;;;;;;;32.10;25.93;;;17.30;99.90;;;;;;5092558;28;20440;-50